createdAt,value
2022-10-20T00:01:28.984Z,21.79
2022-10-20T00:03:58.041Z,21.82
2022-10-20T00:06:31.584Z,21.86
2022-10-20T00:09:02.835Z,21.90
2022-10-20T00:11:32.119Z,21.94
2022-10-20T00:14:02.292Z,21.97
2022-10-20T00:16:32.516Z,22.03
2022-10-20T00:19:01.028Z,22.06
2022-10-20T00:21:31.022Z,22.10
2022-10-20T00:24:02.903Z,22.14
2022-10-20T00:26:32.887Z,22.19
2022-10-20T00:29:03.628Z,22.23
2022-10-20T00:31:32.894Z,22.26
2022-10-20T00:34:01.551Z,22.30
2022-10-20T00:36:30.122Z,22.34
2022-10-20T00:39:01.134Z,22.38
2022-10-20T00:41:30.570Z,22.42
2022-10-20T00:44:02.415Z,22.45
2022-10-20T00:46:44.349Z,22.49
2022-10-20T00:49:39.108Z,22.54
2022-10-20T00:52:09.420Z,22.58
2022-10-20T00:54:38.345Z,22.63
2022-10-20T00:57:06.969Z,22.67
2022-10-20T00:59:38.553Z,22.71
2022-10-20T01:02:10.192Z,22.77
2022-10-20T01:04:39.457Z,22.82
2022-10-20T01:07:08.461Z,22.86
2022-10-20T01:09:37.804Z,22.90
2022-10-20T01:12:30.005Z,22.94
2022-10-20T01:18:26.594Z,23.06
2022-10-20T01:21:05.425Z,23.12
2022-10-20T01:23:57.887Z,23.18
2022-10-20T01:26:49.335Z,23.25
2022-10-20T01:29:40.508Z,23.32
2022-10-20T01:32:20.168Z,23.38
2022-10-20T01:35:26.919Z,23.47
2022-10-20T01:38:03.369Z,23.53
2022-10-20T01:40:51.503Z,23.58
2022-10-20T01:43:25.086Z,23.67
2022-10-20T01:45:55.148Z,23.73
2022-10-20T01:48:28.991Z,23.80
2022-10-20T01:50:57.935Z,23.86
2022-10-20T01:53:26.489Z,23.92
2022-10-20T01:55:57.901Z,23.98
2022-10-20T01:58:44.724Z,24.04
2022-10-20T02:01:54.016Z,24.08
2022-10-20T02:04:36.404Z,24.14
2022-10-20T02:07:17.394Z,24.18
2022-10-20T02:09:52.136Z,24.21
2022-10-20T02:12:29.901Z,24.25
2022-10-20T02:14:59.445Z,24.32
2022-10-20T02:17:30.327Z,24.37
2022-10-20T02:19:59.705Z,24.45
2022-10-20T02:22:28.734Z,24.54
2022-10-20T02:24:57.211Z,24.61
2022-10-20T02:27:30.856Z,24.70
2022-10-20T02:30:12.927Z,24.76
2022-10-20T02:32:44.478Z,24.80
2022-10-20T02:35:16.352Z,24.83
2022-10-20T02:37:45.177Z,24.81
2022-10-20T02:40:13.981Z,24.82
2022-10-20T02:42:44.247Z,24.88
2022-10-20T02:45:13.298Z,24.97
2022-10-20T02:47:41.959Z,25.02
2022-10-20T02:50:11.467Z,25.07
2022-10-20T02:52:41.416Z,25.13
2022-10-20T02:55:10.089Z,25.21
2022-10-20T02:57:38.877Z,25.24
2022-10-20T03:00:08.929Z,25.30
2022-10-20T03:02:37.371Z,25.34
2022-10-20T03:05:06.055Z,25.38
2022-10-20T03:07:35.054Z,25.41
2022-10-20T03:10:03.673Z,25.47
2022-10-20T03:12:32.381Z,25.55
2022-10-20T03:15:00.861Z,25.62
2022-10-20T03:17:29.274Z,25.72
2022-10-20T03:19:57.689Z,25.78
2022-10-20T03:22:26.213Z,25.85
2022-10-20T03:24:54.645Z,25.91
2022-10-20T03:27:23.152Z,25.96
2022-10-20T03:29:51.615Z,25.97
2022-10-20T03:32:20.069Z,25.95
2022-10-20T03:34:48.463Z,25.96
2022-10-20T03:37:16.899Z,25.97
2022-10-20T03:39:45.329Z,26.01
2022-10-20T03:42:13.904Z,26.07
2022-10-20T03:44:42.379Z,26.10
2022-10-20T03:47:10.763Z,26.16
2022-10-20T03:49:39.587Z,26.22
2022-10-20T03:52:08.150Z,26.28
2022-10-20T03:54:37.943Z,26.29
2022-10-20T03:57:07.851Z,26.31
2022-10-20T03:59:36.451Z,26.37
2022-10-20T04:02:05.201Z,26.44
2022-10-20T04:04:33.628Z,26.49
2022-10-20T04:07:04.860Z,26.57
2022-10-20T04:09:34.125Z,26.61
2022-10-20T04:12:02.539Z,26.66
2022-10-20T04:14:31.034Z,26.75
2022-10-20T04:16:59.386Z,26.84
2022-10-20T04:19:27.746Z,26.92
2022-10-20T04:21:56.114Z,27.01
2022-10-20T04:24:24.608Z,27.09
2022-10-20T04:26:53.177Z,27.20
2022-10-20T04:29:21.528Z,27.27
2022-10-20T04:31:49.869Z,27.35
2022-10-20T04:34:21.322Z,27.42
2022-10-20T04:36:49.677Z,27.48
2022-10-20T04:39:19.210Z,27.52
2022-10-20T04:41:47.776Z,27.56
2022-10-20T04:44:16.359Z,27.56
2022-10-20T04:46:44.762Z,27.62
2022-10-20T04:49:13.226Z,27.64
2022-10-20T04:51:41.579Z,27.71
2022-10-20T04:54:09.995Z,27.76
2022-10-20T04:56:38.338Z,27.80
2022-10-20T04:59:09.657Z,27.78
2022-10-20T05:01:41.100Z,27.82
2022-10-20T05:04:10.236Z,27.87
2022-10-20T05:06:39.030Z,27.94
2022-10-20T05:09:09.621Z,28.02
2022-10-20T05:11:38.820Z,28.07
2022-10-20T05:14:07.270Z,28.10
2022-10-20T05:16:35.984Z,28.15
2022-10-20T05:19:04.710Z,28.13
2022-10-20T05:21:34.236Z,28.13
2022-10-20T05:24:05.240Z,28.13
2022-10-20T05:26:38.166Z,28.17
2022-10-20T05:29:08.649Z,28.23
2022-10-20T05:31:45.208Z,28.30
2022-10-20T05:34:13.672Z,28.34
2022-10-20T05:36:42.096Z,28.38
2022-10-20T05:39:12.097Z,28.45
2022-10-20T05:41:40.704Z,28.45
2022-10-20T05:44:09.921Z,28.42
2022-10-20T05:46:42.090Z,28.38
2022-10-20T05:49:15.272Z,28.33
2022-10-20T05:51:44.763Z,28.32
2022-10-20T05:54:14.958Z,28.35
2022-10-20T05:56:43.336Z,28.41
2022-10-20T05:59:13.046Z,28.46
2022-10-20T06:01:51.275Z,28.49
2022-10-20T06:04:24.562Z,28.56
2022-10-20T06:06:54.060Z,28.62
2022-10-20T06:09:24.102Z,28.64
2022-10-20T06:11:53.533Z,28.67
2022-10-20T06:14:26.717Z,28.65
2022-10-20T06:16:56.611Z,28.60
2022-10-20T06:19:26.262Z,28.59
2022-10-20T06:21:55.469Z,28.59
2022-10-20T06:24:24.653Z,28.63
2022-10-20T06:26:53.295Z,28.69
2022-10-20T06:29:21.970Z,28.73
2022-10-20T06:31:52.708Z,28.78
2022-10-20T06:34:23.664Z,28.80
2022-10-20T06:36:52.278Z,28.82
2022-10-20T06:39:23.391Z,28.80
2022-10-20T06:41:54.033Z,28.79
2022-10-20T06:44:24.739Z,28.82
2022-10-20T06:46:53.500Z,28.81
2022-10-20T06:49:21.997Z,28.78
2022-10-20T06:51:50.865Z,28.75
2022-10-20T06:54:19.714Z,28.75
2022-10-20T06:56:48.076Z,28.76
2022-10-20T06:59:16.389Z,28.72
2022-10-20T07:01:44.831Z,28.69
2022-10-20T07:04:16.592Z,28.66
2022-10-20T07:06:46.849Z,28.63
2022-10-20T07:09:18.464Z,28.59
2022-10-20T07:11:47.690Z,28.56
2022-10-20T07:14:16.080Z,28.50
2022-10-20T07:16:44.425Z,28.46
2022-10-20T07:19:13.000Z,28.39
2022-10-20T07:21:44.425Z,28.31
2022-10-20T07:24:14.144Z,28.25
2022-10-20T07:26:43.390Z,28.20
2022-10-20T07:29:12.404Z,28.18
2022-10-20T07:31:46.395Z,28.15
2022-10-20T07:34:26.183Z,28.11
2022-10-20T07:36:56.553Z,28.09
2022-10-20T07:39:25.778Z,28.08
2022-10-20T07:41:54.210Z,28.06
2022-10-20T07:44:23.133Z,28.05
2022-10-20T07:46:51.547Z,28.05
2022-10-20T07:52:08.390Z,28.03
2022-10-20T07:54:36.809Z,28.05
2022-10-20T07:57:05.208Z,28.05
2022-10-20T07:59:33.607Z,28.03
2022-10-20T08:02:01.945Z,27.98
2022-10-20T08:04:33.465Z,27.95
2022-10-20T08:07:01.947Z,27.89
2022-10-20T08:09:30.354Z,27.87
2022-10-20T08:12:01.912Z,27.84
2022-10-20T08:14:34.656Z,27.83
2022-10-20T08:17:03.879Z,27.83
2022-10-20T08:22:23.773Z,27.81
2022-10-20T08:24:52.200Z,27.79
2022-10-20T08:27:20.863Z,27.81
2022-10-20T08:29:59.898Z,27.81
2022-10-20T08:32:28.867Z,27.83
2022-10-20T08:35:00.100Z,27.84
2022-10-20T08:37:31.461Z,27.88
2022-10-20T08:39:59.906Z,27.92
2022-10-20T08:42:28.681Z,27.91
2022-10-20T08:45:01.392Z,27.90
2022-10-20T08:47:37.912Z,27.90
2022-10-20T08:50:10.903Z,27.91
2022-10-20T08:52:42.447Z,27.90
2022-10-20T08:55:23.690Z,27.91
2022-10-20T08:57:52.138Z,27.90
2022-10-20T09:00:24.488Z,27.89
2022-10-20T09:02:53.254Z,27.87
2022-10-20T09:05:30.236Z,27.83
2022-10-20T09:07:58.967Z,27.79
2022-10-20T09:10:35.927Z,27.72
2022-10-20T09:13:12.935Z,27.65
2022-10-20T09:15:41.768Z,27.60
2022-10-20T09:18:15.291Z,27.55
2022-10-20T09:21:02.248Z,27.48
2022-10-20T09:23:42.616Z,27.43
2022-10-20T09:26:54.610Z,27.39
2022-10-20T09:29:37.242Z,27.34
2022-10-20T09:32:46.080Z,27.30
2022-10-20T09:35:21.444Z,27.26
2022-10-20T09:38:16.955Z,27.22
2022-10-20T09:41:01.890Z,27.17
2022-10-20T09:43:30.313Z,27.12
2022-10-20T09:46:02.608Z,27.07
2022-10-20T09:48:35.577Z,27.01
2022-10-20T09:51:07.535Z,26.97
2022-10-20T09:53:56.526Z,26.90
2022-10-20T09:56:31.744Z,26.85
2022-10-20T09:59:02.266Z,26.80
2022-10-20T10:01:30.702Z,26.76
2022-10-20T10:04:04.946Z,26.71
2022-10-20T10:06:47.201Z,26.66
2022-10-20T10:09:36.093Z,26.63
2022-10-20T10:12:13.561Z,26.57
2022-10-20T10:15:04.005Z,26.54
2022-10-20T10:17:44.061Z,26.52
2022-10-20T10:20:14.991Z,26.48
2022-10-20T10:22:44.778Z,26.45
2022-10-20T10:25:26.715Z,26.42
2022-10-20T10:28:07.693Z,26.40
2022-10-20T10:30:38.371Z,26.36
2022-10-20T10:33:39.064Z,26.33
2022-10-20T10:36:16.337Z,26.30
2022-10-20T10:38:44.648Z,26.27
2022-10-20T10:41:42.715Z,26.25
2022-10-20T10:44:28.682Z,26.21
2022-10-20T10:47:14.187Z,26.18
2022-10-20T10:49:54.505Z,26.15
2022-10-20T10:52:40.989Z,26.12
2022-10-20T10:55:47.689Z,26.11
2022-10-20T10:58:36.946Z,26.07
2022-10-20T11:01:35.246Z,26.04
2022-10-20T11:04:23.907Z,26.03
2022-10-20T11:07:10.794Z,26.01
2022-10-20T11:09:48.185Z,26.00
2022-10-20T11:12:16.558Z,25.97
2022-10-20T11:14:50.628Z,25.97
2022-10-20T11:17:39.158Z,25.96
2022-10-20T11:20:10.503Z,25.94
2022-10-20T11:23:06.264Z,25.94
2022-10-20T11:26:01.285Z,25.92
2022-10-20T11:28:36.475Z,25.90
2022-10-20T11:31:06.074Z,25.88
2022-10-20T11:33:48.667Z,25.87
2022-10-20T11:36:23.066Z,25.87
2022-10-20T11:38:55.117Z,25.88
2022-10-20T11:44:08.256Z,25.83
2022-10-20T11:47:01.681Z,25.84
2022-10-20T11:49:33.681Z,25.82
2022-10-20T11:52:23.137Z,25.81
2022-10-20T11:55:19.215Z,25.79
2022-10-20T11:58:11.617Z,25.79
2022-10-20T12:01:11.474Z,25.75
2022-10-20T12:04:14.290Z,25.70
2022-10-20T12:07:14.608Z,25.70
2022-10-20T12:10:21.384Z,25.68
2022-10-20T12:13:04.468Z,25.67
2022-10-20T12:15:33.072Z,25.67
2022-10-20T12:18:07.010Z,25.64
2022-10-20T12:20:38.505Z,25.64
2022-10-20T12:23:07.009Z,25.62
2022-10-20T12:25:41.681Z,25.60
2022-10-20T12:28:26.484Z,25.60
2022-10-20T12:31:05.999Z,25.59
2022-10-20T12:34:02.624Z,25.57
2022-10-20T12:36:40.206Z,25.60
2022-10-20T12:39:17.923Z,25.57
2022-10-20T12:42:06.248Z,25.55
2022-10-20T12:44:44.314Z,25.55
2022-10-20T12:47:25.634Z,25.54
2022-10-20T12:50:10.059Z,25.52
2022-10-20T12:52:41.531Z,25.51
2022-10-20T12:55:20.800Z,25.49
2022-10-20T12:57:49.352Z,25.49
2022-10-20T13:00:20.276Z,25.46
2022-10-20T13:02:59.307Z,25.45
2022-10-20T13:05:41.005Z,25.43
2022-10-20T13:08:31.028Z,25.42
2022-10-20T13:11:34.391Z,25.42
2022-10-20T13:14:14.850Z,25.40
2022-10-20T13:17:01.604Z,25.39
2022-10-20T13:20:00.459Z,25.38
2022-10-20T13:22:42.667Z,25.37
2022-10-20T13:25:45.085Z,25.38
2022-10-20T13:28:29.771Z,25.36
2022-10-20T13:31:14.422Z,25.37
2022-10-20T13:34:05.267Z,25.36
2022-10-20T13:36:59.032Z,25.33
2022-10-20T13:39:42.317Z,25.31
2022-10-20T13:42:19.479Z,25.30
2022-10-20T13:45:12.740Z,25.27
2022-10-20T13:47:47.169Z,25.25
2022-10-20T13:52:58.000Z,25.24
2022-10-20T13:55:29.912Z,25.22
2022-10-20T13:58:21.264Z,25.23
2022-10-20T14:01:09.408Z,25.20
2022-10-20T14:03:46.782Z,25.17
2022-10-20T14:06:49.056Z,25.17
2022-10-20T14:09:20.777Z,25.17
2022-10-20T14:11:55.484Z,25.17
2022-10-20T14:14:27.261Z,25.15
2022-10-20T14:17:04.750Z,25.15
2022-10-20T14:19:34.471Z,25.15
2022-10-20T14:22:24.035Z,25.15
2022-10-20T14:24:58.171Z,25.14
2022-10-20T14:27:30.749Z,25.13
2022-10-20T14:30:00.748Z,25.11
2022-10-20T14:32:32.993Z,25.11
2022-10-20T14:35:26.934Z,25.06
2022-10-20T14:38:16.657Z,25.07
2022-10-20T14:40:52.228Z,25.08
2022-10-20T14:43:27.909Z,25.06
2022-10-20T14:46:00.260Z,25.07
2022-10-20T14:48:42.387Z,25.05
2022-10-20T14:51:28.840Z,25.05
2022-10-20T14:54:18.105Z,25.03
2022-10-20T14:56:49.112Z,25.02
2022-10-20T14:59:21.608Z,25.02
2022-10-20T15:02:12.993Z,25.00
2022-10-20T15:04:43.596Z,24.99
2022-10-20T15:07:33.556Z,24.98
2022-10-20T15:10:11.087Z,24.96
2022-10-20T15:12:43.879Z,24.97
2022-10-20T15:15:12.169Z,24.95
2022-10-20T15:17:46.513Z,24.96
2022-10-20T15:20:36.096Z,24.94
2022-10-20T15:23:27.920Z,24.94
2022-10-20T15:26:03.919Z,24.93
2022-10-20T15:28:44.617Z,24.92
2022-10-20T15:31:29.628Z,24.91
2022-10-20T15:34:00.019Z,24.92
2022-10-20T15:36:33.888Z,24.90
2022-10-20T15:39:02.462Z,24.91
2022-10-20T15:41:33.450Z,24.91
2022-10-20T15:44:12.272Z,24.90
2022-10-20T15:46:40.677Z,24.92
2022-10-20T15:49:09.230Z,24.92
2022-10-20T15:51:41.021Z,24.91
2022-10-20T15:54:18.902Z,24.91
2022-10-20T15:56:47.488Z,24.91
2022-10-20T15:59:15.859Z,24.91
2022-10-20T16:01:44.153Z,24.89
2022-10-20T16:04:24.176Z,24.90
2022-10-20T16:06:57.845Z,24.90
2022-10-20T16:09:27.618Z,24.89
2022-10-20T16:11:56.030Z,24.88
2022-10-20T16:14:24.470Z,24.86
2022-10-20T16:16:52.819Z,24.86
2022-10-20T16:19:21.371Z,24.85
2022-10-20T16:21:49.725Z,24.84
2022-10-20T16:24:18.051Z,24.84
2022-10-20T16:26:46.356Z,24.83
2022-10-20T16:29:14.708Z,24.83
2022-10-20T16:31:43.043Z,24.82
2022-10-20T16:34:11.356Z,24.81
2022-10-20T16:36:39.754Z,24.80
2022-10-20T16:39:08.054Z,24.80
2022-10-20T16:41:36.360Z,24.80
2022-10-20T16:44:07.734Z,24.80
2022-10-20T16:46:36.204Z,24.77
2022-10-20T16:49:05.249Z,24.75
2022-10-20T16:51:33.703Z,24.72
2022-10-20T16:54:03.480Z,24.68
2022-10-20T16:56:32.169Z,24.65
2022-10-20T16:59:00.653Z,24.61
2022-10-20T17:01:29.307Z,24.59
2022-10-20T17:03:57.644Z,24.55
2022-10-20T17:06:27.794Z,24.50
2022-10-20T17:08:56.641Z,24.47
2022-10-20T17:11:28.140Z,24.43
2022-10-20T17:13:57.415Z,24.38
2022-10-20T17:16:29.766Z,24.35
2022-10-20T17:19:00.199Z,24.31
2022-10-20T17:21:30.586Z,24.26
2022-10-20T17:23:59.443Z,24.23
2022-10-20T17:26:31.465Z,24.20
2022-10-20T17:29:02.426Z,24.18
2022-10-20T17:31:31.493Z,24.15
2022-10-20T17:34:01.046Z,24.11
2022-10-20T17:36:30.751Z,24.09
2022-10-20T17:39:02.062Z,24.04
2022-10-20T17:41:31.227Z,24.02
2022-10-20T17:44:03.621Z,23.99
2022-10-20T17:46:32.095Z,23.96
2022-10-20T17:49:02.586Z,23.95
2022-10-20T17:51:33.701Z,23.93
2022-10-20T17:54:04.219Z,23.91
2022-10-20T17:56:36.603Z,23.88
2022-10-20T17:59:07.499Z,23.86
2022-10-20T18:01:42.555Z,23.82
2022-10-20T18:04:16.998Z,23.80
2022-10-20T18:06:46.815Z,23.77
2022-10-20T18:09:18.085Z,23.73
2022-10-20T18:11:49.826Z,23.72
2022-10-20T18:14:18.659Z,23.69
2022-10-20T18:16:47.755Z,23.67
2022-10-20T18:19:18.551Z,23.65
2022-10-20T18:21:47.205Z,23.64
2022-10-20T18:24:17.367Z,23.61
2022-10-20T18:26:46.247Z,23.59
2022-10-20T18:29:16.321Z,23.56
2022-10-20T18:31:47.090Z,23.54
2022-10-20T18:34:23.983Z,23.50
2022-10-20T18:36:55.035Z,23.49
2022-10-20T18:39:23.889Z,23.46
2022-10-20T18:41:55.422Z,23.45
2022-10-20T18:44:24.893Z,23.42
2022-10-20T18:46:59.428Z,23.40
2022-10-20T18:49:28.528Z,23.39
2022-10-20T18:51:56.903Z,23.36
2022-10-20T18:54:25.308Z,23.33
2022-10-20T18:56:53.768Z,23.32
2022-10-20T18:59:23.869Z,23.30
2022-10-20T19:01:52.351Z,23.29
2022-10-20T19:04:20.862Z,23.28
2022-10-20T19:06:49.975Z,23.26
2022-10-20T19:09:20.978Z,23.23
2022-10-20T19:14:23.806Z,23.21
2022-10-20T19:16:52.197Z,23.19
2022-10-20T19:19:21.000Z,23.17
2022-10-20T19:21:49.584Z,23.15
2022-10-20T19:24:25.056Z,23.12
2022-10-20T19:27:08.032Z,23.12
2022-10-20T19:29:45.233Z,23.09
2022-10-20T19:32:13.685Z,23.09
2022-10-20T19:34:43.322Z,23.08
2022-10-20T19:37:11.703Z,23.05
2022-10-20T19:39:42.776Z,23.03
2022-10-20T19:42:12.619Z,23.00
2022-10-20T19:44:41.513Z,22.99
2022-10-20T19:47:09.998Z,22.96
2022-10-20T19:49:38.691Z,22.96
2022-10-20T19:52:07.955Z,22.94
2022-10-20T19:54:36.520Z,22.93
2022-10-20T19:57:05.681Z,22.91
2022-10-20T19:59:34.175Z,22.90
2022-10-20T20:02:02.579Z,22.89
2022-10-20T20:04:30.944Z,22.86
2022-10-20T20:07:02.145Z,22.83
2022-10-20T20:09:31.934Z,22.79
2022-10-20T20:12:00.400Z,22.76
2022-10-20T20:14:28.767Z,22.73
2022-10-20T20:16:57.132Z,22.69
2022-10-20T20:19:25.584Z,22.66
2022-10-20T20:21:54.023Z,22.63
2022-10-20T20:24:22.344Z,22.61
2022-10-20T20:26:51.058Z,22.58
2022-10-20T20:29:19.374Z,22.58
2022-10-20T20:31:49.076Z,22.56
2022-10-20T20:34:17.450Z,22.55
2022-10-20T20:36:45.772Z,22.53
2022-10-20T20:39:14.212Z,22.53
2022-10-20T20:41:42.525Z,22.51
2022-10-20T20:44:10.988Z,22.50
2022-10-20T20:46:39.432Z,22.48
2022-10-20T20:49:07.807Z,22.46
2022-10-20T20:51:36.189Z,22.44
2022-10-20T20:54:04.711Z,22.42
2022-10-20T20:56:33.545Z,22.41
2022-10-20T20:59:01.921Z,22.39
2022-10-20T21:01:34.889Z,22.38
2022-10-20T21:04:06.956Z,22.36
2022-10-20T21:07:00.161Z,22.35
2022-10-20T21:09:23.929Z,22.33
2022-10-20T21:11:52.284Z,22.31
2022-10-20T21:14:20.739Z,22.31
2022-10-20T21:16:49.213Z,22.30
2022-10-20T21:19:17.566Z,22.29
2022-10-20T21:21:51.386Z,22.27
2022-10-20T21:24:19.841Z,22.24
2022-10-20T21:26:49.648Z,22.25
2022-10-20T21:29:18.467Z,22.23
2022-10-20T21:31:47.023Z,22.21
2022-10-20T21:34:15.648Z,22.19
2022-10-20T21:36:43.995Z,22.16
2022-10-20T21:39:16.929Z,22.15
2022-10-20T21:41:46.684Z,22.13
2022-10-20T21:44:16.005Z,22.11
2022-10-20T21:46:48.365Z,22.10
2022-10-20T21:49:21.562Z,22.08
2022-10-20T21:51:53.243Z,22.07
2022-10-20T21:54:25.200Z,22.06
2022-10-20T21:56:55.030Z,22.06
2022-10-20T21:59:28.973Z,22.04
2022-10-20T22:02:02.302Z,21.99
2022-10-20T22:04:31.539Z,21.98
2022-10-20T22:07:00.521Z,21.98
2022-10-20T22:09:29.262Z,21.97
2022-10-20T22:11:59.401Z,21.94
2022-10-20T22:14:28.280Z,21.92
2022-10-20T22:16:57.526Z,21.92
2022-10-20T22:19:26.437Z,21.93
2022-10-20T22:21:55.343Z,21.91
2022-10-20T22:24:24.503Z,21.89
2022-10-20T22:26:54.008Z,21.89
2022-10-20T22:29:23.871Z,21.86
2022-10-20T22:31:52.386Z,21.84
2022-10-20T22:34:20.820Z,21.85
2022-10-20T22:36:49.213Z,21.85
2022-10-20T22:39:17.577Z,21.83
2022-10-20T22:41:45.932Z,21.82
2022-10-20T22:44:14.305Z,21.84
2022-10-20T22:46:42.625Z,21.83
2022-10-20T22:49:12.613Z,21.83
2022-10-20T22:51:41.126Z,21.82
2022-10-20T22:54:09.528Z,21.80
2022-10-20T22:56:37.908Z,21.80
2022-10-20T22:59:06.323Z,21.80
2022-10-20T23:01:34.675Z,21.80
2022-10-20T23:04:03.069Z,21.80
2022-10-20T23:06:31.711Z,21.80
2022-10-20T23:09:00.080Z,21.81
2022-10-20T23:11:30.228Z,21.80
2022-10-20T23:13:58.561Z,21.80
2022-10-20T23:16:26.911Z,21.79
2022-10-20T23:18:55.354Z,21.80
2022-10-20T23:21:23.724Z,21.79
2022-10-20T23:23:52.077Z,21.81
2022-10-20T23:26:20.402Z,21.81
2022-10-20T23:28:49.706Z,21.82
2022-10-20T23:31:21.564Z,21.84
2022-10-20T23:33:54.721Z,21.87
2022-10-20T23:36:24.067Z,21.89
2022-10-20T23:38:52.629Z,21.90
2022-10-20T23:41:21.450Z,21.93
2022-10-20T23:43:49.833Z,21.96
2022-10-20T23:46:18.291Z,21.98
2022-10-20T23:48:46.633Z,22.03
2022-10-20T23:51:14.995Z,22.05
2022-10-20T23:53:43.331Z,22.08
2022-10-20T23:56:11.697Z,22.11
2022-10-20T23:58:40.058Z,22.16
